Time;durP1;ratioP1;P1;durP2;ratioP2;P2;SDS_P1;SDS_P2;PMS_P1;PMS_P2;Temp;Humidity;BMP_temperature;BMP_pressure;BME280_temperature;BME280_humidity;BME280_pressure;Samples;Min_cycle;Max_cycle;Signal;HPM_P1;HPM_P2
2022/07/15 00:02:23;;;;;;;2.33;1.07;;;21.20;33.10;;;;;;5092143;28;20544;-47
2022/07/15 00:04:49;;;;;;;1.77;1.10;;;21.20;33.00;;;;;;5092024;28;20902;-47
2022/07/15 00:07:15;;;;;;;1.90;0.77;;;21.10;33.10;;;;;;5091742;28;20405;-44
2022/07/15 00:12:26;;;;;;;1.80;0.90;;;21.10;33.30;;;;;;5092307;28;20908;-43
2022/07/15 00:14:51;;;;;;;2.20;1.30;;;21.00;33.20;;;;;;5117541;22;20494;-45
2022/07/15 00:17:17;;;;;;;5.30;1.70;;;21.00;33.60;;;;;;5123694;28;20167;-45
2022/07/15 00:19:43;;;;;;;2.00;1.20;;;20.90;33.80;;;;;;5132912;28;20323;-45
2022/07/15 00:22:09;;;;;;;2.43;1.07;;;20.90;34.10;;;;;;5131741;28;20163;-45
2022/07/15 00:24:35;;;;;;;1.70;1.00;;;20.90;34.10;;;;;;5133372;27;20178;-46
2022/07/15 00:27:02;;;;;;;2.50;1.30;;;20.80;34.20;;;;;;5136854;27;20159;-46
2022/07/15 00:29:29;;;;;;;2.42;1.48;;;20.80;34.30;;;;;;5137546;27;20510;-45
2022/07/15 00:31:55;;;;;;;3.63;1.63;;;20.70;34.40;;;;;;5137006;27;20254;-45
2022/07/15 00:34:21;;;;;;;3.60;1.17;;;20.70;34.80;;;;;;5136812;27;20518;-45
2022/07/15 00:36:47;;;;;;;1.70;1.00;;;20.60;34.80;;;;;;5136556;27;20899;-45
2022/07/15 00:39:14;;;;;;;3.05;1.30;;;20.60;34.80;;;;;;5136630;27;20411;-45
2022/07/15 00:41:41;;;;;;;2.63;1.20;;;20.50;34.80;;;;;;5136966;27;20187;-45
2022/07/15 00:44:06;;;;;;;1.98;1.13;;;20.50;35.20;;;;;;5136573;27;20183;-45
2022/07/15 00:46:34;;;;;;;1.90;1.00;;;20.50;35.10;;;;;;5136646;27;20177;-45
2022/07/15 00:49:01;;;;;;;1.80;1.00;;;20.40;35.20;;;;;;5137569;27;20400;-44
2022/07/15 00:51:27;;;;;;;1.80;1.30;;;20.40;35.30;;;;;;5136359;27;20898;-46
2022/07/15 00:53:55;;;;;;;1.73;0.93;;;20.40;35.40;;;;;;5136243;27;20400;-46
2022/07/15 00:56:26;;;;;;;2.00;1.10;;;20.30;35.50;;;;;;5136257;27;20170;-46
2022/07/15 00:58:53;;;;;;;5.38;1.88;;;20.20;35.40;;;;;;5136398;27;20494;-47
2022/07/15 01:01:20;;;;;;;2.22;1.38;;;20.20;35.30;;;;;;5136242;27;20194;-46
2022/07/15 01:03:48;;;;;;;2.88;1.70;;;20.20;35.50;;;;;;5134857;27;20641;-46
2022/07/15 01:06:14;;;;;;;4.85;1.25;;;20.10;35.40;;;;;;5136213;27;20176;-46
2022/07/15 01:08:40;;;;;;;2.10;1.38;;;20.10;35.30;;;;;;5136258;27;20178;-44
2022/07/15 01:11:06;;;;;;;3.10;1.10;;;20.10;35.20;;;;;;5136167;27;20671;-47
2022/07/15 01:13:32;;;;;;;2.00;1.30;;;20.00;35.10;;;;;;5136283;27;20417;-46
2022/07/15 01:15:58;;;;;;;5.57;2.10;;;20.00;35.20;;;;;;5134597;27;20969;-46
2022/07/15 01:18:24;;;;;;;1.80;0.77;;;20.00;35.40;;;;;;5135947;27;20560;-46
2022/07/15 01:20:50;;;;;;;7.20;2.37;;;20.00;35.20;;;;;;5134600;27;20557;-47
2022/07/15 01:23:16;;;;;;;1.77;1.07;;;20.00;35.30;;;;;;5135889;27;20396;-46
2022/07/15 01:25:44;;;;;;;1.90;1.00;;;19.90;35.50;;;;;;5135649;27;20412;-46
2022/07/15 01:28:11;;;;;;;1.80;1.00;;;19.90;35.40;;;;;;5136171;27;20200;-47
2022/07/15 01:30:38;;;;;;;2.42;0.90;;;19.90;35.50;;;;;;5135845;27;20170;-45
2022/07/15 01:33:04;;;;;;;2.05;1.02;;;19.80;35.70;;;;;;5135771;27;20171;-47
2022/07/15 01:35:30;;;;;;;2.47;1.30;;;19.80;35.70;;;;;;5135506;27;20217;-45
2022/07/15 01:37:56;;;;;;;1.50;0.65;;;19.70;35.90;;;;;;5135661;27;20417;-46
2022/07/15 01:40:22;;;;;;;3.53;1.33;;;19.70;35.90;;;;;;5135481;27;20198;-45
2022/07/15 01:42:47;;;;;;;3.30;1.00;;;19.70;35.90;;;;;;5135572;27;20452;-47
2022/07/15 01:45:13;;;;;;;2.13;1.20;;;19.60;36.00;;;;;;5135312;27;20191;-46
2022/07/15 01:47:47;;;;;;;1.95;1.00;;;19.60;36.00;;;;;;5135259;27;20237;-44
2022/07/15 01:50:13;;;;;;;2.30;1.35;;;19.50;36.10;;;;;;5135376;27;20189;-47
2022/07/15 01:52:39;;;;;;;2.10;0.95;;;19.50;36.20;;;;;;5135349;27;20630;-45
2022/07/15 01:55:07;;;;;;;2.00;1.13;;;19.40;36.30;;;;;;5135313;27;20201;-46
2022/07/15 01:57:33;;;;;;;2.15;1.40;;;19.40;36.10;;;;;;5135094;27;20533;-44
2022/07/15 01:59:59;;;;;;;1.90;1.03;;;19.40;36.40;;;;;;5135050;27;20281;-46
2022/07/15 02:02:25;;;;;;;2.53;0.90;;;19.40;36.50;;;;;;5135202;27;20190;-45
2022/07/15 02:04:51;;;;;;;1.80;1.00;;;19.40;36.50;;;;;;5135025;27;20187;-45
2022/07/15 02:07:17;;;;;;;1.80;0.90;;;19.30;36.70;;;;;;5134948;27;20399;-45
2022/07/15 02:09:43;;;;;;;3.80;1.50;;;19.20;36.50;;;;;;5135007;27;20670;-46
2022/07/15 02:12:09;;;;;;;2.28;0.90;;;19.20;36.40;;;;;;5133662;27;20918;-46
2022/07/15 02:14:34;;;;;;;3.63;1.30;;;19.20;36.70;;;;;;5134718;27;20217;-45
2022/07/15 02:17:01;;;;;;;1.90;0.90;;;19.20;36.80;;;;;;5134885;27;20239;-46
2022/07/15 02:19:28;;;;;;;2.33;1.10;;;19.20;36.90;;;;;;5135008;27;20440;-45
2022/07/15 02:21:53;;;;;;;2.00;1.08;;;19.20;37.00;;;;;;5134852;27;20201;-46
2022/07/15 02:24:19;;;;;;;1.80;1.10;;;19.20;37.10;;;;;;5134742;27;20225;-47
2022/07/15 02:26:46;;;;;;;2.27;1.40;;;19.10;37.20;;;;;;5134554;27;20159;-46
2022/07/15 02:29:12;;;;;;;2.88;1.00;;;19.10;37.10;;;;;;5134661;27;20163;-44
2022/07/15 02:31:38;;;;;;;3.25;1.15;;;19.10;36.80;;;;;;5134696;27;20163;-44
2022/07/15 02:34:04;;;;;;;2.57;1.00;;;19.00;37.10;;;;;;5134446;27;20197;-46
2022/07/15 02:36:30;;;;;;;2.10;1.13;;;19.00;37.10;;;;;;5134250;27;21107;-46
2022/07/15 02:38:56;;;;;;;2.27;1.17;;;18.90;37.30;;;;;;5134427;27;20295;-47
2022/07/15 02:41:23;;;;;;;1.70;1.00;;;18.90;37.40;;;;;;5134502;27;20478;-45
2022/07/15 02:43:49;;;;;;;2.00;1.35;;;18.90;37.50;;;;;;5134192;27;20764;-45
2022/07/15 02:46:16;;;;;;;2.05;1.27;;;18.90;37.60;;;;;;5134128;27;20622;-46
2022/07/15 02:48:42;;;;;;;2.25;1.23;;;18.80;37.60;;;;;;5133726;27;20220;-46
2022/07/15 02:51:09;;;;;;;2.30;1.30;;;18.80;37.60;;;;;;5134210;27;20170;-46
2022/07/15 02:53:35;;;;;;;4.93;1.10;;;18.80;37.70;;;;;;5134062;27;20206;-46
2022/07/15 02:56:02;;;;;;;2.10;1.30;;;18.70;37.70;;;;;;5132560;27;20174;-45
2022/07/15 02:58:30;;;;;;;1.67;0.80;;;18.70;37.70;;;;;;5133945;27;20171;-46
2022/07/15 03:00:57;;;;;;;4.80;1.35;;;18.70;37.90;;;;;;5134095;27;20255;-45
2022/07/15 03:03:23;;;;;;;2.05;1.25;;;18.70;37.90;;;;;;5134056;27;20243;-46
2022/07/15 03:05:49;;;;;;;2.65;1.70;;;18.70;38.20;;;;;;5133602;27;20190;-43
2022/07/15 03:08:16;;;;;;;4.90;1.30;;;18.60;38.30;;;;;;5133958;27;20167;-46
2022/07/15 03:10:42;;;;;;;1.95;1.30;;;18.70;38.40;;;;;;5133678;27;20405;-47
2022/07/15 03:13:08;;;;;;;2.45;1.40;;;18.60;38.20;;;;;;5133688;27;20170;-46
2022/07/15 03:15:34;;;;;;;3.83;0.90;;;18.60;38.30;;;;;;5133463;27;20243;-47
2022/07/15 03:18:00;;;;;;;2.22;1.30;;;18.60;38.40;;;;;;5133554;27;20413;-46
2022/07/15 03:20:26;;;;;;;3.60;1.40;;;18.60;38.30;;;;;;5133554;27;20561;-46
2022/07/15 03:22:52;;;;;;;2.37;1.23;;;18.50;38.30;;;;;;5133587;27;20657;-46
2022/07/15 03:25:18;;;;;;;3.00;1.80;;;18.50;38.50;;;;;;5133361;27;20425;-45
2022/07/15 03:27:43;;;;;;;2.30;1.40;;;18.50;38.70;;;;;;5133322;27;20171;-44
2022/07/15 03:30:10;;;;;;;1.60;0.70;;;18.50;38.60;;;;;;5133532;27;20208;-44
2022/07/15 03:32:35;;;;;;;2.22;1.00;;;18.40;38.50;;;;;;5133401;27;20896;-44
2022/07/15 03:35:01;;;;;;;3.30;1.10;;;18.40;38.50;;;;;;5133346;27;20269;-46
2022/07/15 03:37:27;;;;;;;3.13;1.40;;;18.40;38.50;;;;;;5133110;27;20170;-46
2022/07/15 03:39:53;;;;;;;1.90;1.20;;;18.40;38.60;;;;;;5133056;27;20546;-45
2022/07/15 03:42:19;;;;;;;6.07;1.60;;;18.40;38.80;;;;;;5133487;27;20208;-45
2022/07/15 03:44:44;;;;;;;1.70;0.80;;;18.40;38.70;;;;;;5133144;27;20535;-46
2022/07/15 03:47:10;;;;;;;3.80;1.50;;;18.40;38.60;;;;;;5133220;27;20404;-45
2022/07/15 03:49:36;;;;;;;1.90;1.20;;;18.40;38.70;;;;;;5133153;27;20173;-45
2022/07/15 03:52:03;;;;;;;2.78;1.45;;;18.50;38.80;;;;;;5133213;27;20174;-44
2022/07/15 03:54:29;;;;;;;3.05;1.27;;;18.50;38.90;;;;;;5133263;27;20199;-46
2022/07/15 03:56:55;;;;;;;2.43;1.37;;;18.50;38.70;;;;;;5132919;28;20197;-46
2022/07/15 03:59:21;;;;;;;3.57;1.33;;;18.50;38.70;;;;;;5132108;27;20447;-44
2022/07/15 04:01:48;;;;;;;2.70;1.40;;;18.60;38.40;;;;;;5133129;28;20408;-43
2022/07/15 04:04:14;;;;;;;2.30;1.20;;;18.60;38.30;;;;;;5133108;28;20202;-46
2022/07/15 04:06:40;;;;;;;2.20;1.20;;;18.60;38.40;;;;;;5132771;28;20192;-44
2022/07/15 04:09:07;;;;;;;2.43;1.37;;;18.60;38.30;;;;;;5132971;28;20262;-47
2022/07/15 04:11:33;;;;;;;1.98;1.10;;;18.60;38.20;;;;;;5133021;28;20403;-45
2022/07/15 04:13:59;;;;;;;2.50;1.30;;;18.70;38.20;;;;;;5132825;28;20182;-45
2022/07/15 04:16:25;;;;;;;2.75;1.40;;;18.70;38.40;;;;;;5132792;28;20412;-45
2022/07/15 04:18:51;;;;;;;2.40;1.20;;;18.70;38.20;;;;;;5133188;28;20174;-46
2022/07/15 04:21:17;;;;;;;3.43;1.50;;;18.80;38.40;;;;;;5132924;28;20520;-45
2022/07/15 04:23:43;;;;;;;2.58;1.70;;;18.80;38.40;;;;;;5132707;28;20428;-45
2022/07/15 04:26:09;;;;;;;2.60;1.27;;;18.80;38.30;;;;;;5132635;28;20205;-45
2022/07/15 04:28:35;;;;;;;1.90;1.05;;;18.90;37.80;;;;;;5132752;28;20421;-45
2022/07/15 04:31:11;;;;;;;2.30;1.20;;;18.90;38.10;;;;;;5133036;27;20174;-45
2022/07/15 04:33:36;;;;;;;2.60;1.15;;;19.00;38.00;;;;;;5132736;28;20197;-46
2022/07/15 04:36:02;;;;;;;7.23;1.40;;;19.00;37.90;;;;;;5132556;28;20171;-45
2022/07/15 04:38:28;;;;;;;3.10;1.80;;;19.00;37.80;;;;;;5132572;28;20171;-46
2022/07/15 04:40:54;;;;;;;2.17;1.27;;;19.10;38.00;;;;;;5132645;28;20571;-45
2022/07/15 04:43:20;;;;;;;8.20;1.70;;;19.10;38.20;;;;;;5132754;28;20600;-46
2022/07/15 04:45:46;;;;;;;2.80;1.60;;;19.20;38.00;;;;;;5132498;28;20191;-44
2022/07/15 04:51:00;;;;;;;3.38;2.75;;;19.30;37.80;;;;;;5112395;28;20179;-46
2022/07/15 04:53:26;;;;;;;2.90;1.20;;;19.30;37.90;;;;;;5132603;28;20686;-45
2022/07/15 04:55:52;;;;;;;1.90;1.30;;;19.40;37.90;;;;;;5132220;28;20191;-45
2022/07/15 04:58:18;;;;;;;3.97;1.47;;;19.40;37.60;;;;;;5132471;28;20456;-45
2022/07/15 05:00:46;;;;;;;1.70;1.10;;;19.40;37.90;;;;;;5132653;28;20190;-45
2022/07/15 05:03:12;;;;;;;2.42;1.85;;;19.50;38.00;;;;;;5132472;28;20155;-45
2022/07/15 05:05:38;;;;;;;2.05;1.10;;;19.50;38.10;;;;;;5132143;28;20217;-45
2022/07/15 05:08:04;;;;;;;15.13;1.53;;;19.50;38.60;;;;;;5132518;28;20552;-45
2022/07/15 05:10:31;;;;;;;2.70;1.33;;;19.60;37.80;;;;;;5132737;27;20170;-46
2022/07/15 05:12:57;;;;;;;2.20;1.30;;;19.70;37.80;;;;;;5136048;27;20511;-44
2022/07/15 05:15:23;;;;;;;3.33;1.63;;;19.80;38.00;;;;;;5135705;27;20240;-46
2022/07/15 05:17:49;;;;;;;3.00;1.58;;;20.00;37.80;;;;;;5135710;27;20219;-46
2022/07/15 05:20:14;;;;;;;4.33;1.60;;;20.10;38.00;;;;;;5136041;27;20202;-46
2022/07/15 05:22:40;;;;;;;3.20;1.17;;;20.20;37.60;;;;;;5135830;27;20529;-45
2022/07/15 05:25:06;;;;;;;2.63;1.43;;;20.30;37.50;;;;;;5135800;27;20187;-45
2022/07/15 05:27:32;;;;;;;3.15;1.20;;;20.30;37.30;;;;;;5135512;27;20396;-45
2022/07/15 05:29:58;;;;;;;4.93;1.60;;;20.30;36.90;;;;;;5135838;27;20182;-45
2022/07/15 05:32:24;;;;;;;3.40;1.00;;;20.30;36.90;;;;;;5135657;27;20183;-45
2022/07/15 05:34:49;;;;;;;4.27;1.30;;;20.30;37.10;;;;;;5135599;27;20191;-45
2022/07/15 05:37:15;;;;;;;3.83;1.30;;;20.30;37.10;;;;;;5135439;27;20167;-46
2022/07/15 05:39:53;;;;;;;2.90;1.53;;;20.40;37.00;;;;;;5135489;27;20655;-46
2022/07/15 05:42:23;;;;;;;2.00;1.10;;;20.40;36.70;;;;;;5135605;27;20170;-45
2022/07/15 05:44:49;;;;;;;2.35;1.20;;;20.40;37.30;;;;;;5135731;27;20202;-46
2022/07/15 05:47:15;;;;;;;3.85;1.33;;;20.40;37.20;;;;;;5135077;27;20163;-44
2022/07/15 05:49:41;;;;;;;4.20;1.27;;;20.50;37.50;;;;;;5135264;27;20178;-44
2022/07/15 05:52:08;;;;;;;2.53;1.00;;;20.50;36.90;;;;;;5135563;27;20174;-45
2022/07/15 05:54:33;;;;;;;3.25;1.15;;;20.50;36.90;;;;;;5135314;27;20198;-46
2022/07/15 05:56:59;;;;;;;4.33;1.77;;;20.50;37.10;;;;;;5134982;27;20185;-45
2022/07/15 05:59:25;;;;;;;1.93;1.00;;;20.60;37.00;;;;;;5134989;27;20525;-45
2022/07/15 06:01:50;;;;;;;4.03;1.47;;;20.60;37.10;;;;;;5135088;27;20170;-46
2022/07/15 06:04:16;;;;;;;2.73;1.27;;;20.60;37.20;;;;;;5135070;27;20182;-45
2022/07/15 06:06:42;;;;;;;2.50;1.30;;;20.70;37.40;;;;;;5134860;27;20220;-45
2022/07/15 06:09:09;;;;;;;2.53;1.10;;;20.70;37.10;;;;;;5134975;27;20407;-45
2022/07/15 06:11:35;;;;;;;4.18;1.48;;;20.70;37.10;;;;;;5134974;27;20562;-46
2022/07/15 06:14:01;;;;;;;3.00;1.70;;;20.80;37.10;;;;;;5134812;27;20178;-45
2022/07/15 06:16:27;;;;;;;2.38;1.15;;;20.80;36.90;;;;;;5134583;27;20181;-44
2022/07/15 06:18:53;;;;;;;3.60;1.37;;;20.90;36.90;;;;;;5135201;27;20171;-45
2022/07/15 06:21:19;;;;;;;1.80;1.17;;;20.90;37.10;;;;;;5134617;27;20519;-45
2022/07/15 06:23:44;;;;;;;2.27;1.20;;;20.90;36.90;;;;;;5133987;27;20409;-45
2022/07/15 06:26:10;;;;;;;2.90;1.43;;;21.00;37.00;;;;;;5134762;27;20246;-45
2022/07/15 06:28:36;;;;;;;1.70;0.90;;;21.00;36.70;;;;;;5134544;27;20585;-45
2022/07/15 06:31:02;;;;;;;2.43;1.40;;;21.00;36.80;;;;;;5134822;27;20591;-44
2022/07/15 06:33:28;;;;;;;3.80;1.40;;;21.10;37.00;;;;;;5134524;27;20655;-44
2022/07/15 06:35:54;;;;;;;2.50;1.60;;;21.10;37.00;;;;;;5134229;27;20186;-44
2022/07/15 06:38:21;;;;;;;2.85;1.15;;;21.10;36.50;;;;;;5134305;27;20196;-45
2022/07/15 06:40:47;;;;;;;5.13;2.70;;;21.20;36.50;;;;;;5128348;22;20220;-48
2022/07/15 06:43:13;;;;;;;6.23;1.37;;;21.20;36.50;;;;;;5063896;28;20165;-48
2022/07/15 06:45:39;;;;;;;5.10;0.95;;;21.20;36.40;;;;;;5052946;28;20169;-49
2022/07/15 06:48:05;;;;;;;3.03;1.40;;;21.20;36.80;;;;;;5053018;28;20166;-48
2022/07/15 06:50:30;;;;;;;5.53;1.53;;;21.30;36.70;;;;;;5052875;28;20189;-48
2022/07/15 06:52:56;;;;;;;3.10;1.13;;;21.40;36.70;;;;;;5052910;28;20404;-48
2022/07/15 06:55:22;;;;;;;2.10;1.20;;;21.50;36.50;;;;;;5052932;28;20165;-48
2022/07/15 06:57:48;;;;;;;2.40;1.37;;;21.60;36.30;;;;;;5052734;28;20411;-48
2022/07/15 07:00:15;;;;;;;3.23;1.60;;;21.70;36.50;;;;;;5052605;28;20451;-49
2022/07/15 07:02:41;;;;;;;4.13;1.23;;;21.90;36.90;;;;;;5052771;28;20407;-49
2022/07/15 07:05:08;;;;;;;3.80;1.30;;;22.00;36.80;;;;;;5052653;28;20410;-48
2022/07/15 07:07:35;;;;;;;8.47;1.60;;;22.20;35.00;;;;;;5052371;28;20411;-49
2022/07/15 07:10:02;;;;;;;2.33;0.80;;;22.20;34.70;;;;;;5052693;28;20906;-49
2022/07/15 07:12:27;;;;;;;2.37;1.13;;;22.20;34.50;;;;;;5052465;28;20902;-48
2022/07/15 07:14:53;;;;;;;1.80;0.83;;;22.20;34.30;;;;;;5052553;28;20414;-47
2022/07/15 07:17:19;;;;;;;2.27;0.80;;;22.20;33.70;;;;;;5052334;28;20177;-48
2022/07/15 07:19:45;;;;;;;5.00;1.93;;;22.10;33.60;;;;;;5051203;28;20288;-48
2022/07/15 07:22:11;;;;;;;4.43;1.60;;;22.20;33.80;;;;;;5052593;28;20451;-49
2022/07/15 07:24:37;;;;;;;3.53;1.33;;;22.20;33.60;;;;;;5052401;28;20862;-47
2022/07/15 07:27:03;;;;;;;4.50;1.33;;;22.20;34.10;;;;;;5052365;28;20253;-48
2022/07/15 07:29:29;;;;;;;3.60;1.10;;;22.30;34.30;;;;;;5052485;28;20196;-48
2022/07/15 07:31:54;;;;;;;2.60;1.27;;;22.40;34.50;;;;;;5052257;28;20438;-49
2022/07/15 07:34:20;;;;;;;2.63;0.90;;;22.50;34.10;;;;;;5052296;28;20173;-48
2022/07/15 07:36:46;;;;;;;2.50;1.10;;;22.60;33.80;;;;;;5052084;28;20620;-48
2022/07/15 07:39:13;;;;;;;4.00;1.30;;;22.70;34.20;;;;;;5052133;28;20581;-49
2022/07/15 07:41:38;;;;;;;3.20;1.07;;;22.90;33.60;;;;;;5051968;28;20448;-48
2022/07/15 07:44:05;;;;;;;5.07;1.40;;;22.90;32.50;;;;;;5052166;28;20898;-49
2022/07/15 07:46:31;;;;;;;5.40;1.40;;;23.10;33.00;;;;;;5052056;28;20181;-48
2022/07/15 07:48:57;;;;;;;2.10;1.10;;;23.10;33.20;;;;;;5052024;28;20745;-49
2022/07/15 07:51:23;;;;;;;3.60;1.20;;;23.30;33.00;;;;;;5052124;28;20225;-49
2022/07/15 07:53:49;;;;;;;1.60;0.87;;;23.30;32.70;;;;;;5051941;28;20427;-49
2022/07/15 07:56:15;;;;;;;2.10;0.90;;;23.40;32.10;;;;;;5051725;28;20889;-48
2022/07/15 07:58:41;;;;;;;2.93;1.53;;;23.40;32.90;;;;;;5051868;28;20412;-48
2022/07/15 08:01:07;;;;;;;2.50;1.13;;;23.40;32.40;;;;;;5051844;28;20455;-48
2022/07/15 08:03:34;;;;;;;6.80;2.70;;;23.50;31.40;;;;;;5051788;28;20252;-48
2022/07/15 08:05:59;;;;;;;4.07;0.80;;;23.60;30.70;;;;;;5051700;28;20824;-48
2022/07/15 08:08:26;;;;;;;5.20;1.07;;;23.70;30.90;;;;;;5051824;28;20914;-47
2022/07/15 08:10:56;;;;;;;4.47;1.40;;;23.80;31.10;;;;;;5051899;28;20228;-48
2022/07/15 08:13:25;;;;;;;7.03;1.50;;;23.90;31.60;;;;;;5051810;28;20415;-48
2022/07/15 08:15:53;;;;;;;2.53;0.90;;;23.90;30.30;;;;;;5051433;28;20926;-47
2022/07/15 08:18:20;;;;;;;2.53;0.90;;;23.90;29.10;;;;;;5051709;28;20507;-48
2022/07/15 08:20:46;;;;;;;2.77;1.00;;;23.90;29.50;;;;;;5051607;28;20463;-48
2022/07/15 08:23:12;;;;;;;1.70;0.90;;;23.90;29.10;;;;;;5051824;28;20499;-49
2022/07/15 08:25:38;;;;;;;1.80;0.83;;;23.80;29.30;;;;;;5051381;28;20492;-48
2022/07/15 08:28:05;;;;;;;3.10;1.17;;;23.80;30.70;;;;;;5051682;28;20402;-48
2022/07/15 08:30:33;;;;;;;2.93;1.30;;;23.90;29.60;;;;;;5051522;28;20435;-49
2022/07/15 08:32:59;;;;;;;4.60;1.33;;;23.90;29.30;;;;;;5051672;28;20518;-49
2022/07/15 08:35:26;;;;;;;5.33;0.80;;;24.10;30.50;;;;;;5051551;28;20402;-47
2022/07/15 08:37:53;;;;;;;2.83;0.93;;;24.20;29.50;;;;;;5051716;28;20498;-49
2022/07/15 08:40:18;;;;;;;2.30;1.10;;;24.30;27.80;;;;;;5051528;28;20451;-48
2022/07/15 08:42:46;;;;;;;4.27;1.33;;;24.30;27.50;;;;;;5052115;28;20411;-47
2022/07/15 08:45:14;;;;;;;2.00;1.00;;;24.20;28.70;;;;;;5051492;28;20174;-48
2022/07/15 08:47:41;;;;;;;5.00;1.20;;;24.10;28.50;;;;;;5055247;28;20400;-49
2022/07/15 08:50:14;;;;;;;2.93;1.03;;;24.10;28.80;;;;;;5055231;28;20797;-48
2022/07/15 08:52:40;;;;;;;1.80;0.70;;;24.10;28.20;;;;;;5055224;28;20396;-48
2022/07/15 08:55:07;;;;;;;2.47;1.30;;;24.00;27.80;;;;;;5055424;28;20480;-47
2022/07/15 08:57:33;;;;;;;2.57;1.13;;;24.00;28.90;;;;;;5054849;28;20439;-49
2022/07/15 08:59:59;;;;;;;3.00;1.00;;;24.00;28.90;;;;;;5055004;28;20479;-49
2022/07/15 09:02:25;;;;;;;2.90;1.20;;;23.90;29.10;;;;;;5055061;28;20499;-48
2022/07/15 09:05:29;;;;;;;2.80;1.10;;;23.90;29.40;;;;;;5055018;28;20895;-47
2022/07/15 09:07:56;;;;;;;3.50;1.03;;;23.90;30.00;;;;;;5054726;28;20268;-48
2022/07/15 09:10:24;;;;;;;2.67;1.03;;;23.90;30.00;;;;;;5054821;28;20462;-48
2022/07/15 09:12:51;;;;;;;5.07;1.40;;;23.90;30.30;;;;;;5054875;28;20757;-49
2022/07/15 09:15:37;;;;;;;2.53;1.40;;;24.00;30.10;;;;;;5054901;28;20974;-48
2022/07/15 09:18:14;;;;;;;1.70;0.70;;;24.20;29.90;;;;;;5054789;28;20384;-48
2022/07/15 09:20:41;;;;;;;3.97;1.03;;;24.30;29.80;;;;;;5054820;28;20467;-49
2022/07/15 09:23:09;;;;;;;2.70;1.07;;;24.40;29.50;;;;;;5054640;28;20494;-48
2022/07/15 09:25:37;;;;;;;2.20;0.90;;;24.50;29.10;;;;;;5054453;28;20926;-49
2022/07/15 09:28:05;;;;;;;6.03;1.60;;;24.60;28.30;;;;;;5054594;28;20459;-49
2022/07/15 09:33:38;;;;;;;2.30;1.30;;;24.50;28.30;;;;;;5054775;28;20403;-48
2022/07/15 09:36:10;;;;;;;2.63;1.53;;;24.40;28.40;;;;;;5054458;28;20465;-50
2022/07/15 09:38:42;;;;;;;1.90;0.97;;;24.30;28.20;;;;;;5054466;28;20408;-48
2022/07/15 09:41:10;;;;;;;2.40;1.30;;;24.20;29.00;;;;;;5054108;28;20533;-48
2022/07/15 09:43:51;;;;;;;4.97;1.93;;;24.20;29.40;;;;;;5054168;28;20415;-51
2022/07/15 09:46:19;;;;;;;2.90;0.93;;;24.20;29.00;;;;;;5054098;28;20400;-50
2022/07/15 09:48:47;;;;;;;1.80;1.00;;;24.20;29.00;;;;;;5054182;28;20419;-48
2022/07/15 09:51:14;;;;;;;2.40;1.13;;;24.20;28.60;;;;;;5054089;28;20440;-49
2022/07/15 09:53:41;;;;;;;2.33;0.87;;;24.20;28.80;;;;;;5054040;28;20476;-50
2022/07/15 09:56:10;;;;;;;2.43;0.90;;;24.10;28.90;;;;;;5053947;28;20412;-49
2022/07/15 09:58:40;;;;;;;2.67;1.30;;;24.10;28.70;;;;;;5053007;28;20439;-48
2022/07/15 10:01:08;;;;;;;2.33;1.43;;;24.20;29.10;;;;;;5053933;28;20872;-48
2022/07/15 10:03:35;;;;;;;2.87;1.03;;;24.40;29.00;;;;;;5057905;28;20511;-48
2022/07/15 10:06:02;;;;;;;2.37;1.00;;;24.50;27.60;;;;;;5057368;28;20443;-48
2022/07/15 10:08:31;;;;;;;3.30;0.90;;;24.50;27.70;;;;;;5057845;28;20407;-48
2022/07/15 10:10:57;;;;;;;2.57;1.17;;;24.50;28.30;;;;;;5057786;28;20431;-48
2022/07/15 10:13:38;;;;;;;4.10;1.60;;;24.60;28.00;;;;;;5053828;28;20546;-50
2022/07/15 10:16:43;;;;;;;2.73;1.37;;;24.70;28.60;;;;;;5053467;28;20406;-51
2022/07/15 10:19:22;;;;;;;2.00;1.00;;;24.80;27.70;;;;;;5053150;28;20429;-50
2022/07/15 10:21:56;;;;;;;2.27;1.27;;;24.90;26.40;;;;;;5053606;28;20435;-51
2022/07/15 10:24:48;;;;;;;2.53;0.90;;;25.00;27.50;;;;;;5053531;28;20525;-50
2022/07/15 10:27:32;;;;;;;2.40;1.20;;;25.00;26.50;;;;;;5053307;28;20400;-50
2022/07/15 10:30:03;;;;;;;5.93;1.53;;;25.00;26.00;;;;;;5053834;28;20403;-49
2022/07/15 10:32:49;;;;;;;2.53;0.97;;;24.80;25.90;;;;;;5056363;28;20392;-49
2022/07/15 10:35:36;;;;;;;3.37;1.30;;;24.70;26.10;;;;;;5056021;28;20414;-49
2022/07/15 10:38:31;;;;;;;1.87;0.80;;;24.70;26.70;;;;;;5056497;28;21015;-50
2022/07/15 10:41:03;;;;;;;3.00;1.00;;;24.70;27.00;;;;;;5056565;28;20470;-50
2022/07/15 10:43:47;;;;;;;1.80;0.60;;;24.60;26.60;;;;;;5056511;28;20376;-49
2022/07/15 10:46:16;;;;;;;3.20;1.40;;;24.60;27.20;;;;;;5056306;28;20416;-49
2022/07/15 10:48:52;;;;;;;2.23;1.03;;;24.70;26.80;;;;;;5056207;28;20537;-50
2022/07/15 10:51:45;;;;;;;2.10;1.00;;;24.60;27.00;;;;;;5056113;28;20814;-50
2022/07/15 10:54:17;;;;;;;2.50;1.53;;;24.60;27.00;;;;;;5053345;28;20416;-49
2022/07/15 10:56:45;;;;;;;1.60;0.80;;;24.60;27.20;;;;;;5055852;28;20495;-50
2022/07/15 10:59:14;;;;;;;3.53;1.30;;;24.70;27.30;;;;;;5054970;28;20453;-50
2022/07/15 11:02:10;;;;;;;5.70;1.57;;;24.80;27.00;;;;;;5052768;28;20470;-50
2022/07/15 11:04:36;;;;;;;1.93;0.90;;;25.00;26.50;;;;;;5052531;28;20400;-50
2022/07/15 11:07:02;;;;;;;4.90;1.40;;;25.20;26.40;;;;;;5052699;28;20412;-50
2022/07/15 11:09:48;;;;;;;2.87;1.10;;;25.20;26.40;;;;;;5052521;28;20408;-50
2022/07/15 11:12:18;;;;;;;4.20;1.13;;;25.30;26.20;;;;;;5054341;28;20272;-49
2022/07/15 11:15:02;;;;;;;2.20;1.20;;;25.30;25.70;;;;;;5055855;28;20385;-49
2022/07/15 11:17:33;;;;;;;3.83;1.43;;;25.30;25.50;;;;;;5055418;28;20925;-50
2022/07/15 11:20:11;;;;;;;7.63;0.97;;;25.40;25.40;;;;;;5055280;28;20448;-49
2022/07/15 11:22:40;;;;;;;2.40;1.27;;;25.40;24.60;;;;;;5055433;28;20387;-49
2022/07/15 11:25:15;;;;;;;1.60;0.67;;;25.40;23.60;;;;;;5055272;28;20554;-50
2022/07/15 11:27:41;;;;;;;2.13;0.70;;;25.40;24.10;;;;;;5052596;28;20394;-51
2022/07/15 11:30:07;;;;;;;3.10;1.40;;;25.50;25.40;;;;;;5052575;28;20416;-49
2022/07/15 11:32:33;;;;;;;2.07;1.00;;;25.60;24.40;;;;;;5052336;28;20189;-51
2022/07/15 11:35:04;;;;;;;4.60;1.20;;;25.60;23.40;;;;;;5052595;28;20915;-51
2022/07/15 11:37:35;;;;;;;2.33;0.90;;;25.70;23.80;;;;;;5051935;28;20873;-50
2022/07/15 11:40:08;;;;;;;2.40;1.00;;;25.70;24.10;;;;;;5052041;28;20531;-50
2022/07/15 11:45:37;;;;;;;2.43;1.17;;;25.70;24.00;;;;;;5052693;28;20382;-51
2022/07/15 11:48:06;;;;;;;5.10;1.53;;;25.70;24.50;;;;;;5052651;28;20376;-51
2022/07/15 11:50:34;;;;;;;2.27;0.80;;;25.70;24.40;;;;;;5052141;28;20474;-51
2022/07/15 11:53:00;;;;;;;1.70;0.90;;;25.70;24.10;;;;;;5052449;28;20403;-50
2022/07/15 11:55:26;;;;;;;1.80;0.97;;;25.50;24.30;;;;;;5052173;28;20400;-50
2022/07/15 11:57:52;;;;;;;3.50;1.43;;;25.50;23.90;;;;;;5052005;28;20952;-49
2022/07/15 12:00:27;;;;;;;1.90;0.87;;;25.40;24.70;;;;;;5051445;28;20452;-50
2022/07/15 12:03:06;;;;;;;1.50;0.60;;;25.40;24.60;;;;;;5055478;28;20177;-49
2022/07/15 12:05:32;;;;;;;1.73;0.80;;;25.60;24.80;;;;;;5055243;28;20399;-49
2022/07/15 12:07:58;;;;;;;3.10;1.20;;;25.70;24.70;;;;;;5055370;28;20399;-49
2022/07/15 12:10:34;;;;;;;1.80;0.87;;;25.80;23.80;;;;;;5055563;28;20428;-49
2022/07/15 12:13:01;;;;;;;3.07;1.10;;;25.90;23.00;;;;;;5056642;28;20196;-49
2022/07/15 12:15:29;;;;;;;3.63;1.23;;;25.90;23.60;;;;;;5054377;28;20408;-50
2022/07/15 12:17:55;;;;;;;2.80;1.37;;;26.00;24.50;;;;;;5052228;28;20412;-50
2022/07/15 12:20:22;;;;;;;1.70;0.70;;;26.00;23.70;;;;;;5053211;28;20456;-49
2022/07/15 12:23:10;;;;;;;1.90;0.97;;;26.10;23.70;;;;;;5059409;28;20415;-50
2022/07/15 12:25:36;;;;;;;2.67;0.73;;;26.40;22.60;;;;;;5055842;28;20408;-50
2022/07/15 12:28:02;;;;;;;1.90;0.90;;;26.60;23.20;;;;;;5056110;28;20404;-49
2022/07/15 12:30:34;;;;;;;3.73;1.03;;;26.70;23.60;;;;;;5055889;28;20423;-50
2022/07/15 12:33:23;;;;;;;2.17;0.83;;;26.90;23.30;;;;;;5056216;28;20395;-52
2022/07/15 12:35:49;;;;;;;2.33;0.90;;;27.00;23.10;;;;;;5056114;28;20457;-50
2022/07/15 12:38:30;;;;;;;5.10;1.00;;;27.00;22.30;;;;;;5055823;28;20461;-49
2022/07/15 12:41:08;;;;;;;3.43;1.20;;;27.00;22.90;;;;;;5055598;28;20491;-53
2022/07/15 12:43:47;;;;;;;6.53;1.30;;;26.90;22.40;;;;;;5055459;28;20407;-51
2022/07/15 12:46:13;;;;;;;2.10;0.80;;;26.80;22.70;;;;;;5055305;28;20407;-50
2022/07/15 12:48:47;;;;;;;3.90;1.23;;;26.70;22.80;;;;;;5055362;28;20461;-51
2022/07/15 12:51:14;;;;;;;2.00;1.07;;;26.60;22.40;;;;;;5071315;22;20486;-44
2022/07/15 12:53:41;;;;;;;2.10;1.07;;;26.50;22.70;;;;;;5059773;28;20392;-45
2022/07/15 12:56:07;;;;;;;2.07;1.00;;;26.40;22.60;;;;;;5075062;28;20411;-45
2022/07/15 12:58:35;;;;;;;2.20;1.00;;;26.50;22.90;;;;;;5075085;28;20410;-45
2022/07/15 13:01:16;;;;;;;2.20;0.80;;;26.60;22.90;;;;;;5075197;28;20549;-44
2022/07/15 13:03:42;;;;;;;2.27;0.90;;;26.60;23.00;;;;;;5075071;28;20379;-45
2022/07/15 13:06:09;;;;;;;1.97;0.80;;;26.50;22.60;;;;;;5074687;28;20405;-45